NCAR-RAP Real-Time Weather Data

Output produced by METARs form (17 October 2018  16:17 UTC)
found at http://weather.rap.ucar.edu/surface/
 
RJSN 171214Z 07005KT 020V110 9999 FEW020 BKN030 16/11 Q1015 RMK 1CU020 7CU030 A2999
RJSN 171200Z 01010KT 9999 FEW020 BKN030 16/10 Q1015
RJSN 171100Z 02011KT 9999 FEW020 SCT030 BKN040 16/11 Q1015
RJSN 171000Z 01011KT 9999 FEW010 SCT020 BKN030 16/11 Q1015
RJSN 170900Z 02011KT 9999 -SHRA FEW010 SCT020 BKN030 16/12 Q1014
RJSN 170800Z VRB02KT 9999 -SHRA FEW010 SCT020 BKN030 14/13 Q1014
RJSN 170720Z 21004KT 9999 -SHRA FEW010 SCT020 BKN030 14/13 Q1014 RMK 1CU010 4CU020 7CU030 A2995
RJSN 170700Z 22004KT 8000 SHRA BR FEW010 BKN020 BKN030 14/13 Q1013
RJSN 170648Z 20005KT 4000 R28/1200VP2000U SHRA BR FEW010 BKN020 BKN030 14/13 Q1013 RMK 1CU010 5CU020 7CU030 A2994
RJSN 170642Z 20004KT 4000 R28/1300VP2000D SHRA BR FEW010 BKN020 BKN030 14/13 Q1013 RMK 1CU010 5CU020 7CU030 A2994
RJSN 170630Z 19007KT 8000 SHRA BR FEW010 BKN020 BKN030 14/13 Q1013 RMK 1CU010 5CU020 7CU030 A2993 4000NW
RJSN 170600Z 17005KT 140V210 8000 -SHRA FEW010 BKN020 BKN030 14/12 Q1013
RJSN 170545Z 19005KT 5000 R28/1000VP2000U SHRA BR FEW010 BKN020 BKN030 14/13 Q1013 RMK 1CU010 5CU020 7CU030 A2992
RJSN 170544Z 19005KT 4000 R28/0700VP2000U SHRA BR FEW010 BKN020 BKN030 14/13 Q1013 RMK 1CU010 5CU020 7CU030 A2992
RJSN 170543Z 20005KT 4000 R28/0650VP2000U SHRA BR FEW010 BKN020 BKN030 14/13 Q1013 RMK 1CU010 5CU020 7CU030 A2992
RJSN 170541Z 21005KT 170V250 4000 R28/0650VP2000U SHRA BR FEW010 BKN020 BKN030 14/13 Q1013 RMK 1CU010 5CU020 7CU030 A2992
RJSN 170533Z 24008KT 2500 R28/0700VP2000D +SHRA BR FEW010 BKN020 BKN030 14/13 Q1013 RMK 1CU010 5CU020 7CU030 A2992
RJSN 170530Z 24007KT 2500 R28/0800VP2000D +SHRA BR FEW010 BKN020 BKN040 15/13 Q1013 RMK 1CU010 5CU020 6CU040 A2992 RI++
RJSN 170528Z 24006KT 3000 R28/1000VP2000D +SHRA FEW010 BKN020 BKN040 15/13 Q1013 RMK 1CU010 5CU020 6CU040 A2992 RI++
RJSN 170527Z 23006KT 6000 R28/1000VP2000D +SHRA FEW010 BKN020 BKN040 15/13 Q1013 RMK 1CU010 5CU020 6CU040 A2992 3000W-NW RI++
RJSN 170523Z 23005KT 8000 R28/2000N +SHRA FEW010 BKN020 BKN040 15/13 Q1013 RMK 1CU010 5CU020 6CU040 A2991 4000W-NW RI++
RJSN 170500Z 22004KT 170V240 9999 VCSH FEW020 SCT030 BKN040 15/11 Q1012
RJSN 170400Z 20004KT 9999 -SHRA FEW020 SCT030 BKN040 15/12 Q1012
RJSN 170342Z 27006KT 9999 SHRA FEW020 SCT030 BKN040 15/11 Q1012 RMK 1CU020 3CU030 6CU040 A2991
RJSN 170338Z 27005KT 9999 +SHRA FEW020 SCT030 BKN040 15/12 Q1012 RMK 1CU020 3CU030 6CU040 A2991
RJSN 170300Z 33006KT 9999 -SHRA FEW020 SCT030 BKN070 16/11 Q1012
RJSN 170200Z 23003KT 9999 -SHRA FEW020 SCT040 BKN080 17/12 Q1013
RJSN 170100Z 12005KT 090V150 9999 -SHRA FEW020 SCT030 BKN080 16/11 Q1012
RJSN 170000Z 14005KT 9999 -SHRA FEW020 SCT040 BKN080 16/12 Q1012
RJSN 162300Z 12004KT 9999 FEW020 SCT040 BKN090 15/12 Q1012
RJSN 162213Z 11009KT 9999 FEW020 SCT040 BKN090 16/12 Q1012 RMK 1CU020 3CU040 7AC090 A2988
RJSN 162200Z 05015KT 9999 -SHRA FEW020 SCT040 BKN080 16/12 Q1011
RJSN 162110Z 03015KT 9999 -SHRA FEW020 SCT030 BKN070 16/12 Q1011 RMK 1CU020 3CU030 7AC070 A2988
RJSN 161200Z 15004KT 9999 FEW030 SCT070 BKN/// 16/13 Q1011
RJSN 161100Z 10002KT 9999 FEW030 SCT080 BKN/// 17/13 Q1011
RJSN 161000Z 05005KT 9999 FEW030 SCT070 BKN/// 18/13 Q1012
RJSN 160900Z 04003KT 9999 FEW030 SCT070 BKN/// 18/13 Q1012
RJSN 160800Z 02005KT 9999 FEW030 SCT070 BKN/// 19/13 Q1012
RJSN 160700Z 01005KT 300V040 9999 FEW040 BKN080 19/12 Q1012
RJSN 160600Z 35003KT 9999 FEW040 SCT070 BKN/// 19/13 Q1013
RJSN 160500Z 33006KT 9999 FEW030 SCT070 BKN/// 20/13 Q1012
RJSN 160400Z 31006KT 9999 FEW030 SCT070 BKN090 20/13 Q1013
RJSN 160300Z VRB02KT 9999 FEW030 SCT070 BKN090 19/12 Q1014
RJSN 160200Z 18007KT 9999 FEW030 SCT070 BKN090 18/12 Q1014
RJSN 160100Z 17007KT 9999 FEW030 BKN080 17/12 Q1015
RJSN 160000Z 17007KT 9999 FEW030 BKN080 16/12 Q1015
RJSN 152300Z 16006KT 9999 FEW030 SCT080 BKN/// 15/12 Q1015
RJSN 152200Z 18009KT 9999 FEW030 SCT070 BKN/// 14/12 Q1016
RJSN 152110Z 18006KT 9999 FEW030 BKN070 BKN/// 14/12 Q1016 RMK 1CU030 5AC070 A3000
RJSN 151200Z 14004KT 9999 FEW030 16/13 Q1017
RJSN 151100Z 14004KT 9999 FEW030 16/13 Q1017
RJSN 151000Z 05002KT 9999 FEW030 18/14 Q1017
RJSN 150900Z 05003KT 9999 FEW030 19/14 Q1016
RJSN 150800Z VRB02KT 9999 FEW040 SCT/// 19/13 Q1016
RJSN 150700Z 34004KT 290V360 9999 FEW040 SCT/// 20/13 Q1016
RJSN 150600Z 35003KT 300V030 9999 FEW040 SCT/// 20/13 Q1016
RJSN 150500Z 35006KT 320V020 9999 FEW040 BKN/// 20/12 Q1016